Cirencester, United Kingdom
Current Conditions -  °F | °C
As of 12:23 AM on Friday 28 Nov 2014 (Local Time) from EGVA Reporting Station
Broken Clouds Broken Clouds  
Wind Chill: 43°   Ceiling: 900
Heat Index: 46°   Visibility: 6mi
Dew Point: 46°   Wind: 7mph
Humidity: 100%   Direction: 70°ENE
Pressure: 29.54"   Gusts: NA
Location:  51.72°N, 1.97°W
Report Text: EGVA 280023Z AUTO 07006KT 9999 BKN009 08/08 A2954 RMK AO2 CIG 009V011 CIG 005 RWY27 $
Loading
Personal Weather Stations






























Interactive Weather Map New forecast layout! Learn more

10-Day Weather Forecast

Advertisements
Track Severe Weather on mobile